F/V Stereden Ar Moor — FZZX — position and weather

sailwx.info

Track history (hours):
 
Tides and Currents Weather Stations Pressure Air Temp Water Temp Dewpoint Dewpoint Depression Visibility Wind Speed Wind Dir Waves Ship Positions

F/V Stereden Ar Moor

Last reported at 2018-Feb-22 00:12 UTC. Time now 2018-Feb-23 16:52 UTC.
Position N 47°49' W 004°23'.

Type: Fishing. MMSI: 228167900.

Date/timePositionNaut miles runAvg speedWind from/ knotsBaromVisibWave heightAir tempDewpointWater temp
2018-Feb-22 00:12N 47°49' W 004°23'0 0.0
2018-Feb-21 23:56N 47°49' W 004°23'0 0.0
2018-Feb-21 23:30N 47°49' W 004°23'0 0.0
2018-Feb-21 23:00N 47°49' W 004°23'1 1.7
2018-Feb-21 22:30N 47°49' W 004°24'5 9.4
2018-Feb-21 22:00N 47°54' W 004°25'2 4.0
2018-Feb-21 21:30N 47°54' W 004°28'2 3.2
2018-Feb-21 21:00N 47°54' W 004°30'5 9.7
2018-Feb-21 20:30N 47°58' W 004°34'4 8.6
2018-Feb-21 20:01N 48°01' W 004°39'2 3.3
2018-Feb-21 19:30N 47°59' W 004°40'5 9.6
2018-Feb-21 19:00N 47°55' W 004°44'1 2.1
2018-Feb-21 18:29N 47°56' W 004°43'1 3.0
2018-Feb-21 18:00N 47°56' W 004°41'5 9.7
2018-Feb-21 17:30N 47°53' W 004°35'5 9.9
2018-Feb-21 17:00N 47°51' W 004°29'4 8.7
2018-Feb-21 16:30N 47°49' W 004°23'0 0.0
2018-Feb-21 04:05N 47°49' W 004°23'0 0.0
2018-Feb-21 03:59N 47°49' W 004°23'3 5.7
2018-Feb-21 03:30N 47°46' W 004°23'2 0.4
2018-Feb-20 22:43N 47°46' W 004°20'2 9.0
2018-Feb-20 22:30N 47°47' W 004°23'5 9.5
2018-Feb-20 22:00N 47°50' W 004°27'510.0
2018-Feb-20 21:30N 47°54' W 004°32'510.2
2018-Feb-20 21:00N 47°59' W 004°36'2 3.6
2018-Feb-20 20:29N 48°00' W 004°37'0 0.7
2018-Feb-20 19:59N 48°00' W 004°38'0 0.9
2018-Feb-20 19:31N 48°00' W 004°37'0 0.7
2018-Feb-20 18:56N 48°00' W 004°38'2 5.5
2018-Feb-20 18:30N 47°58' W 004°40'3 5.9
2018-Feb-20 18:00N 47°59' W 004°44'5 9.1
2018-Feb-20 17:31N 48°03' W 004°46'5 9.7
2018-Feb-20 17:00N 48°06' W 004°39'5 9.5
2018-Feb-20 16:31N 48°09' W 004°34'4 7.7
2018-Feb-20 16:01N 48°10' W 004°28'4 8.7
2018-Feb-20 15:30N 48°08' W 004°23'3 6.0
2018-Feb-20 15:00N 48°06' W 004°19'0 0.0
2018-Feb-19 23:39N 48°06' W 004°19'0 0.0
2018-Feb-19 23:29N 48°06' W 004°19'0 0.3
2018-Feb-19 23:00N 48°06' W 004°19'0 0.0
2018-Feb-19 22:31N 48°06' W 004°19'0 0.0
2018-Feb-19 22:01N 48°06' W 004°19'0 0.0
2018-Feb-19 21:30N 48°06' W 004°19'2 4.6
2018-Feb-19 21:01N 48°08' W 004°20'5 9.7
2018-Feb-19 20:31N 48°12' W 004°24'1 1.2
2018-Feb-19 20:00N 48°12' W 004°25'1 1.5
2018-Feb-19 19:30N 48°13' W 004°25'3 5.8
2018-Feb-19 19:01N 48°11' W 004°21'3 6.8
2018-Feb-19 18:30N 48°08' W 004°22'0 0.1
2018-Feb-19 18:00N 48°08' W 004°22'1 1.9
2018-Feb-19 17:30N 48°07' W 004°23'0 0.2
2018-Feb-19 16:59N 48°08' W 004°23'1 2.0
2018-Feb-19 16:30N 48°07' W 004°23'0 0.2
2018-Feb-19 16:01N 48°07' W 004°23'3 5.4
2018-Feb-19 15:31N 48°06' W 004°20'0 0.0
2018-Feb-19 14:58N 48°06' W 004°20'0 0.0
2018-Feb-19 14:30N 48°06' W 004°20'0 0.0
2018-Feb-19 14:00N 48°06' W 004°20'0 0.0
2018-Feb-18 22:55N 48°06' W 004°19'0 0.1
2018-Feb-18 22:30N 48°06' W 004°19'0 0.0
2018-Feb-18 22:00N 48°06' W 004°19'3 6.4
2018-Feb-18 21:30N 48°07' W 004°24'4 7.5
2018-Feb-18 21:01N 48°10' W 004°22'1 1.1
2018-Feb-18 20:31N 48°11' W 004°22'0 0.8
2018-Feb-18 20:01N 48°11' W 004°22'0 0.2
2018-Feb-18 19:31N 48°11' W 004°22'0 0.7
2018-Feb-18 19:00N 48°11' W 004°22'3 5.3
2018-Feb-18 18:30N 48°10' W 004°25'3 6.1
2018-Feb-18 18:00N 48°12' W 004°28'0 0.2
2018-Feb-18 17:31N 48°12' W 004°28'1 2.3
2018-Feb-18 17:00N 48°12' W 004°30'4 8.1
2018-Feb-18 16:29N 48°08' W 004°27'1 2.0
2018-Feb-18 16:00N 48°08' W 004°29'4 8.8
2018-Feb-18 15:30N 48°07' W 004°22'2 4.7
2018-Feb-18 15:00N 48°06' W 004°19'  
2018-Feb-15 22:42N 48°06' W 004°19'0 0.0
2018-Feb-15 22:30N 48°06' W 004°19'0 0.0
2018-Feb-15 22:00N 48°06' W 004°19'0 0.3
2018-Feb-15 21:31N 48°06' W 004°19'0 0.0
2018-Feb-15 21:00N 48°06' W 004°19'0 0.9
2018-Feb-15 20:30N 48°06' W 004°19'4 8.9
2018-Feb-15 20:00N 48°10' W 004°22'2 3.8
2018-Feb-15 19:30N 48°11' W 004°25'2 3.7
2018-Feb-15 19:01N 48°12' W 004°27'5 9.5
2018-Feb-15 18:30N 48°07' W 004°28'4 7.9
2018-Feb-15 18:00N 48°10' W 004°24'1 2.2
2018-Feb-15 17:30N 48°10' W 004°22'2 4.4
2018-Feb-15 17:00N 48°08' W 004°21'1 2.7
2018-Feb-15 16:30N 48°08' W 004°24'0 0.6
2018-Feb-15 16:01N 48°08' W 004°24'3 5.0
2018-Feb-15 15:30N 48°10' W 004°22'4 8.0
2018-Feb-15 15:00N 48°06' W 004°19'1 0.0
2018-Feb-14 22:09N 48°06' W 004°19'0 0.0
2018-Feb-14 21:59N 48°06' W 004°19'0 0.4
2018-Feb-14 21:30N 48°06' W 004°20'0 0.0
2018-Feb-14 21:01N 48°06' W 004°20'2 4.9
2018-Feb-14 20:30N 48°08' W 004°20'1 3.0
2018-Feb-14 20:00N 48°10' W 004°22'0 0.2
2018-Feb-14 19:30N 48°09' W 004°22'1 2.7
2018-Feb-14 19:01N 48°08' W 004°22'3 5.6
2018-Feb-14 18:30N 48°10' W 004°25'5 8.4
2018-Feb-14 17:58N 48°09' W 004°18'1 2.6
2018-Feb-14 17:30N 48°08' W 004°20'1 1.2
2018-Feb-14 17:01N 48°08' W 004°21'2 3.4
2018-Feb-14 16:30N 48°09' W 004°23'3 6.1
2018-Feb-14 16:00N 48°10' W 004°27'2 4.1
2018-Feb-14 15:30N 48°10' W 004°24'4 8.6
2018-Feb-14 15:00N 48°07' W 004°19'1 0.0
2018-Feb-13 15:40N 48°06' W 004°19'0 0.0
2018-Feb-13 15:29N 48°06' W 004°19'0 0.0
2018-Feb-13 15:00N 48°06' W 004°19'0 0.0
2018-Feb-12 19:28N 48°06' W 004°19'2 4.6
2018-Feb-12 19:00N 48°07' W 004°22'5 9.1
2018-Feb-12 18:28N 48°06' W 004°29'3 5.7
2018-Feb-12 18:00N 48°07' W 004°25'1 1.2
2018-Feb-12 17:30N 48°07' W 004°24'2 4.0
2018-Feb-12 17:00N 48°06' W 004°27'1 1.7
2018-Feb-12 16:30N 48°06' W 004°28'4 8.5
2018-Feb-12 16:00N 48°08' W 004°23'4 7.4
2018-Feb-12 15:30N 48°06' W 004°28'5 9.6
2018-Feb-12 14:58N 48°05' W 004°35'4 9.6
2018-Feb-12 14:30N 48°04' W 004°42'3 6.9
2018-Feb-12 14:00N 48°02' W 004°45'5 9.0
2018-Feb-12 13:30N 47°59' W 004°40'5 9.5
2018-Feb-12 13:01N 47°56' W 004°36'5 9.5
2018-Feb-12 12:31N 47°52' W 004°31'5 9.6
2018-Feb-12 12:00N 47°49' W 004°26'5 9.1
2018-Feb-12 11:29N 47°46' W 004°20'8 7.9
2018-Feb-12 10:27N 47°50' W 004°09'1 1.4
2018-Feb-12 09:38N 47°50' W 004°10'  
Track history (hours):
 
Tides and Currents Weather Stations Pressure Air Temp Water Temp Dewpoint Dewpoint Depression Visibility Wind Speed Wind Dir Waves Ship Positions

F/V Stereden Ar Moor

Last reported at 2018-Feb-22 00:12 UTC. Time now 2018-Feb-23 16:52 UTC.
Position N 47°49' W 004°23'.

Type: Fishing. MMSI: 228167900.

Date/timePositionNaut miles runAvg speedWind from/ knotsBaromVisibWave heightAir tempDewpointWater temp
2018-Feb-22 00:12N 47°49' W 004°23'0 0.0
2018-Feb-21 23:56N 47°49' W 004°23'0 0.0
2018-Feb-21 23:30N 47°49' W 004°23'0 0.0
2018-Feb-21 23:00N 47°49' W 004°23'1 1.7
2018-Feb-21 22:30N 47°49' W 004°24'5 9.4
2018-Feb-21 22:00N 47°54' W 004°25'2 4.0
2018-Feb-21 21:30N 47°54' W 004°28'2 3.2
2018-Feb-21 21:00N 47°54' W 004°30'5 9.7
2018-Feb-21 20:30N 47°58' W 004°34'4 8.6
2018-Feb-21 20:01N 48°01' W 004°39'2 3.3
2018-Feb-21 19:30N 47°59' W 004°40'5 9.6
2018-Feb-21 19:00N 47°55' W 004°44'1 2.1
2018-Feb-21 18:29N 47°56' W 004°43'1 3.0
2018-Feb-21 18:00N 47°56' W 004°41'5 9.7
2018-Feb-21 17:30N 47°53' W 004°35'5 9.9
2018-Feb-21 17:00N 47°51' W 004°29'4 8.7
2018-Feb-21 16:30N 47°49' W 004°23'0 0.0
2018-Feb-21 04:05N 47°49' W 004°23'0 0.0
2018-Feb-21 03:59N 47°49' W 004°23'3 5.7
2018-Feb-21 03:30N 47°46' W 004°23'2 0.4
2018-Feb-20 22:43N 47°46' W 004°20'2 9.0
2018-Feb-20 22:30N 47°47' W 004°23'5 9.5
2018-Feb-20 22:00N 47°50' W 004°27'510.0
2018-Feb-20 21:30N 47°54' W 004°32'510.2
2018-Feb-20 21:00N 47°59' W 004°36'2 3.6
2018-Feb-20 20:29N 48°00' W 004°37'0 0.7
2018-Feb-20 19:59N 48°00' W 004°38'0 0.9
2018-Feb-20 19:31N 48°00' W 004°37'0 0.7
2018-Feb-20 18:56N 48°00' W 004°38'2 5.5
2018-Feb-20 18:30N 47°58' W 004°40'3 5.9
2018-Feb-20 18:00N 47°59' W 004°44'5 9.1
2018-Feb-20 17:31N 48°03' W 004°46'5 9.7
2018-Feb-20 17:00N 48°06' W 004°39'5 9.5
2018-Feb-20 16:31N 48°09' W 004°34'4 7.7
2018-Feb-20 16:01N 48°10' W 004°28'4 8.7
2018-Feb-20 15:30N 48°08' W 004°23'3 6.0
2018-Feb-20 15:00N 48°06' W 004°19'0 0.0
2018-Feb-19 23:39N 48°06' W 004°19'0 0.0
2018-Feb-19 23:29N 48°06' W 004°19'0 0.3
2018-Feb-19 23:00N 48°06' W 004°19'0 0.0
2018-Feb-19 22:31N 48°06' W 004°19'0 0.0
2018-Feb-19 22:01N 48°06' W 004°19'0 0.0
2018-Feb-19 21:30N 48°06' W 004°19'2 4.6
2018-Feb-19 21:01N 48°08' W 004°20'5 9.7
2018-Feb-19 20:31N 48°12' W 004°24'1 1.2
2018-Feb-19 20:00N 48°12' W 004°25'1 1.5
2018-Feb-19 19:30N 48°13' W 004°25'3 5.8
2018-Feb-19 19:01N 48°11' W 004°21'3 6.8
2018-Feb-19 18:30N 48°08' W 004°22'0 0.1
2018-Feb-19 18:00N 48°08' W 004°22'1 1.9
2018-Feb-19 17:30N 48°07' W 004°23'0 0.2
2018-Feb-19 16:59N 48°08' W 004°23'1 2.0
2018-Feb-19 16:30N 48°07' W 004°23'0 0.2
2018-Feb-19 16:01N 48°07' W 004°23'3 5.4
2018-Feb-19 15:31N 48°06' W 004°20'0 0.0
2018-Feb-19 14:58N 48°06' W 004°20'0 0.0
2018-Feb-19 14:30N 48°06' W 004°20'0 0.0
2018-Feb-19 14:00N 48°06' W 004°20'0 0.0
2018-Feb-18 22:55N 48°06' W 004°19'0 0.1
2018-Feb-18 22:30N 48°06' W 004°19'0 0.0
2018-Feb-18 22:00N 48°06' W 004°19'3 6.4
2018-Feb-18 21:30N 48°07' W 004°24'4 7.5
2018-Feb-18 21:01N 48°10' W 004°22'1 1.1
2018-Feb-18 20:31N 48°11' W 004°22'0 0.8
2018-Feb-18 20:01N 48°11' W 004°22'0 0.2
2018-Feb-18 19:31N 48°11' W 004°22'0 0.7
2018-Feb-18 19:00N 48°11' W 004°22'3 5.3
2018-Feb-18 18:30N 48°10' W 004°25'3 6.1
2018-Feb-18 18:00N 48°12' W 004°28'0 0.2
2018-Feb-18 17:31N 48°12' W 004°28'1 2.3
2018-Feb-18 17:00N 48°12' W 004°30'4 8.1
2018-Feb-18 16:29N 48°08' W 004°27'1 2.0
2018-Feb-18 16:00N 48°08' W 004°29'4 8.8
2018-Feb-18 15:30N 48°07' W 004°22'2 4.7
2018-Feb-18 15:00N 48°06' W 004°19'  
2018-Feb-15 22:42N 48°06' W 004°19'0 0.0
2018-Feb-15 22:30N 48°06' W 004°19'0 0.0
2018-Feb-15 22:00N 48°06' W 004°19'0 0.3
2018-Feb-15 21:31N 48°06' W 004°19'0 0.0
2018-Feb-15 21:00N 48°06' W 004°19'0 0.9
2018-Feb-15 20:30N 48°06' W 004°19'4 8.9
2018-Feb-15 20:00N 48°10' W 004°22'2 3.8
2018-Feb-15 19:30N 48°11' W 004°25'2 3.7
2018-Feb-15 19:01N 48°12' W 004°27'5 9.5
2018-Feb-15 18:30N 48°07' W 004°28'4 7.9
2018-Feb-15 18:00N 48°10' W 004°24'1 2.2
2018-Feb-15 17:30N 48°10' W 004°22'2 4.4
2018-Feb-15 17:00N 48°08' W 004°21'1 2.7
2018-Feb-15 16:30N 48°08' W 004°24'0 0.6
2018-Feb-15 16:01N 48°08' W 004°24'3 5.0
2018-Feb-15 15:30N 48°10' W 004°22'4 8.0
2018-Feb-15 15:00N 48°06' W 004°19'1 0.0
2018-Feb-14 22:09N 48°06' W 004°19'0 0.0
2018-Feb-14 21:59N 48°06' W 004°19'0 0.4
2018-Feb-14 21:30N 48°06' W 004°20'0 0.0
2018-Feb-14 21:01N 48°06' W 004°20'2 4.9
2018-Feb-14 20:30N 48°08' W 004°20'1 3.0
2018-Feb-14 20:00N 48°10' W 004°22'0 0.2
2018-Feb-14 19:30N 48°09' W 004°22'1 2.7
2018-Feb-14 19:01N 48°08' W 004°22'3 5.6
2018-Feb-14 18:30N 48°10' W 004°25'5 8.4
2018-Feb-14 17:58N 48°09' W 004°18'1 2.6
2018-Feb-14 17:30N 48°08' W 004°20'1 1.2
2018-Feb-14 17:01N 48°08' W 004°21'2 3.4
2018-Feb-14 16:30N 48°09' W 004°23'3 6.1
2018-Feb-14 16:00N 48°10' W 004°27'2 4.1
2018-Feb-14 15:30N 48°10' W 004°24'4 8.6
2018-Feb-14 15:00N 48°07' W 004°19'1 0.0
2018-Feb-13 15:40N 48°06' W 004°19'0 0.0
2018-Feb-13 15:29N 48°06' W 004°19'0 0.0
2018-Feb-13 15:00N 48°06' W 004°19'0 0.0
2018-Feb-12 19:28N 48°06' W 004°19'2 4.6
2018-Feb-12 19:00N 48°07' W 004°22'5 9.1
2018-Feb-12 18:28N 48°06' W 004°29'3 5.7
2018-Feb-12 18:00N 48°07' W 004°25'1 1.2
2018-Feb-12 17:30N 48°07' W 004°24'2 4.0
2018-Feb-12 17:00N 48°06' W 004°27'1 1.7
2018-Feb-12 16:30N 48°06' W 004°28'4 8.5
2018-Feb-12 16:00N 48°08' W 004°23'4 7.4
2018-Feb-12 15:30N 48°06' W 004°28'5 9.6
2018-Feb-12 14:58N 48°05' W 004°35'4 9.6
2018-Feb-12 14:30N 48°04' W 004°42'3 6.9
2018-Feb-12 14:00N 48°02' W 004°45'5 9.0
2018-Feb-12 13:30N 47°59' W 004°40'5 9.5
2018-Feb-12 13:01N 47°56' W 004°36'5 9.5
2018-Feb-12 12:31N 47°52' W 004°31'5 9.6
2018-Feb-12 12:00N 47°49' W 004°26'5 9.1
2018-Feb-12 11:29N 47°46' W 004°20'8 7.9
2018-Feb-12 10:27N 47°50' W 004°09'1 1.4
2018-Feb-12 09:38N 47°50' W 004°10'  

Dump ship's entire track history